This is the latest recevied weather packets stored in our database for station/object VK2OB. If no packets are shown the sender has not sent any weather packets the latest 10 day(s).
| Time | Temp. | Humidity | Pressure | Rain* | Wind** | Luminosity | Snow |
|---|---|---|---|---|---|---|---|
| 1778116062 | 19.44° C | 49% | 1014.6 hPa | 0 mm | - | - | - |
| 1778115763 | 19.44° C | 47% | 1014.7 hPa | 0 mm | - | - | - |
| 1778115463 | 19.44° C | 49% | 1014.7 hPa | 0 mm | - | - | - |
| 1778115163 | 19.44° C | 51% | 1014.8 hPa | 0 mm | - | - | - |
| 1778114864 | 18.89° C | 51% | 1014.7 hPa | 0 mm | - | - | - |
| 1778114565 | 18.33° C | 53% | 1014.7 hPa | 0 mm | - | - | - |
| 1778114266 | 17.78° C | 53% | 1014.7 hPa | 0 mm | - | - | - |
| 1778113967 | 17.78° C | 52% | 1014.8 hPa | 0 mm | - | - | - |
| 1778113668 | 17.78° C | 51% | 1014.8 hPa | 0 mm | - | - | - |
| 1778113369 | 18.33° C | 52% | 1014.9 hPa | 0 mm | - | - | - |
| 1778113070 | 17.78° C | 53% | 1014.9 hPa | 0 mm | - | - | - |
| 1778112771 | 18.33° C | 53% | 1015 hPa | 0 mm | - | - | - |
| 1778112472 | 18.33° C | 52% | 1015 hPa | 0 mm | - | - | - |
| 1778112173 | 18.33° C | 53% | 1015.1 hPa | 0 mm | - | - | - |
| 1778111874 | 18.89° C | 53% | 1015.1 hPa | 0 mm | - | - | - |
| 1778111575 | 18.89° C | 54% | 1015.2 hPa | 0 mm | - | - | - |
| 1778111276 | 19.44° C | 52% | 1015.2 hPa | 0 mm | - | - | - |
| 1778110977 | 20° C | 51% | 1015.1 hPa | 0 mm | - | - | - |
| 1778110678 | 19.44° C | 54% | 1015.1 hPa | 0 mm | - | - | - |
| 1778110379 | 18.33° C | 58% | 1015.1 hPa | 0 mm | - | - | - |
| 1778110080 | 17.22° C | 61% | 1015.1 hPa | 0 mm | - | - | - |
| 1778109781 | 16.11° C | 62% | 1015.1 hPa | 0 mm | - | - | - |
| 1778109482 | 16.11° C | 61% | 1015.3 hPa | 0 mm | - | - | - |
| 1778109183 | 16.67° C | 61% | 1015.2 hPa | 0 mm | - | - | - |
| 1778108884 | 16.11° C | 62% | 1015.2 hPa | 0 mm | - | - | - |
* Rain latest hour (hover to see other rain measurements)
** Current wind speed in m/s (hover to see current wind gust speed)